Agua Fria, Brazil
Current Conditions -  °F | °C
As of 2:00 PM on Saturday 25 Oct 2014 (Local Time) from SBSV Reporting Station
Scattered Clouds Scattered Clouds  
Wind Chill: 82°   Ceiling: Unl
Heat Index: 86°   Visibility: 6mi
Dew Point: 70°   Wind: 15mph
Humidity: 66%   Direction: 60°ENE
Pressure: 29.91"   Gusts: NA
Location:  11.87°S, 38.77°W
Report Text: SBSV 251700Z 06013KT 9999 SCT017 FEW020TCU 28/21 Q1013
Loading
Personal Weather Stations






























Interactive Weather Map
Tropical Storm Tracking
New forecast layout! Learn more

10-Day Weather Forecast

Advertisements
Track Severe Weather on mobile